createdAt,value
2023-01-18T00:02:02.143Z,0.20
2023-01-18T00:04:32.240Z,0.10
2023-01-18T00:07:02.927Z,0.10
2023-01-18T00:09:32.627Z,0.10
2023-01-18T00:12:02.175Z,0.10
2023-01-18T00:14:32.148Z,0.10
2023-01-18T00:17:02.138Z,0.10
2023-01-18T00:19:33.014Z,0.10
2023-01-18T00:22:02.888Z,0.10
2023-01-18T00:24:32.024Z,0.10
2023-01-18T00:27:02.127Z,0.10
2023-01-18T00:29:32.268Z,0.10
2023-01-18T00:32:02.196Z,0.10
2023-01-18T00:34:32.264Z,0.10
2023-01-18T00:37:02.086Z,0.10
2023-01-18T00:39:32.063Z,0.10
2023-01-18T00:42:12.114Z,0.20
2023-01-18T00:44:32.237Z,0.20
2023-01-18T00:47:02.275Z,0.20
2023-01-18T00:49:32.642Z,0.20
2023-01-18T00:52:02.136Z,0.20
2023-01-18T00:57:02.335Z,0.10
2023-01-18T00:59:32.118Z,0.10
2023-01-18T01:02:02.449Z,0.10
2023-01-18T01:04:42.160Z,0.10
2023-01-18T01:07:02.127Z,0.10
2023-01-18T01:09:32.102Z,0.10
2023-01-18T01:12:12.128Z,0.10
2023-01-18T01:14:45.233Z,0.10
2023-01-18T01:17:11.936Z,0.10
2023-01-18T01:19:42.075Z,0.10
2023-01-18T01:22:12.086Z,0.10
2023-01-18T01:24:42.243Z,0.10
2023-01-18T01:27:02.235Z,0.10
2023-01-18T01:29:32.082Z,0.10
2023-01-18T01:32:02.537Z,0.10
2023-01-18T01:37:02.829Z,0.10
2023-01-18T01:44:44.415Z,0.10
2023-01-18T01:47:06.844Z,0.10
2023-01-18T01:52:04.943Z,0.10
2023-01-18T01:54:37.036Z,0.10
2023-01-18T01:57:06.404Z,0.10
2023-01-18T01:59:33.490Z,0.10
2023-01-18T02:02:02.733Z,0.10
2023-01-18T02:04:32.915Z,0.10
2023-01-18T02:07:02.073Z,0.10
2023-01-18T02:09:32.205Z,0.10
2023-01-18T02:12:03.187Z,0.10
2023-01-18T02:14:32.384Z,0.10
2023-01-18T02:17:14.111Z,0.10
2023-01-18T02:19:51.876Z,0.10
2023-01-18T02:22:09.077Z,0.10
2023-01-18T02:24:51.412Z,0.10
2023-01-18T02:27:04.532Z,0.10
2023-01-18T02:29:40.207Z,0.10
2023-01-18T02:32:13.424Z,0.20
2023-01-18T02:34:38.365Z,0.20
2023-01-18T02:37:10.243Z,0.20
2023-01-18T02:39:38.986Z,0.20
2023-01-18T02:42:18.635Z,0.10
2023-01-18T02:44:47.318Z,0.10
2023-01-18T02:49:32.320Z,0.10
2023-01-18T02:52:05.159Z,0.10
2023-01-18T02:54:38.153Z,0.10
2023-01-18T02:57:07.874Z,0.10
2023-01-18T02:59:36.506Z,0.10
2023-01-18T03:02:07.267Z,0.10
2023-01-18T03:04:36.365Z,0.10
2023-01-18T03:12:11.048Z,0.20
2023-01-18T03:14:41.259Z,0.20
2023-01-18T03:17:09.781Z,0.20
2023-01-18T03:19:49.273Z,0.20
2023-01-18T03:22:04.095Z,0.10
2023-01-18T03:24:40.408Z,0.10
2023-01-18T03:27:13.476Z,0.10
2023-01-18T03:32:16.953Z,0.10
2023-01-18T03:34:38.209Z,0.10
2023-01-18T03:37:07.047Z,0.10
2023-01-18T03:39:38.256Z,0.10
2023-01-18T03:42:05.769Z,0.10
2023-01-18T03:47:04.604Z,0.10
2023-01-18T03:49:33.628Z,0.10
2023-01-18T03:52:14.850Z,0.20
2023-01-18T03:54:37.199Z,0.20
2023-01-18T03:57:09.205Z,0.20
2023-01-18T03:59:36.517Z,0.20
2023-01-18T04:02:02.797Z,0.20
2023-01-18T04:04:32.686Z,0.20
2023-01-18T04:07:03.102Z,0.20
2023-01-18T04:09:32.425Z,0.20
2023-01-18T04:12:02.516Z,0.10
2023-01-18T04:14:32.298Z,0.10
2023-01-18T04:17:02.205Z,0.10
2023-01-18T04:19:32.268Z,0.10
2023-01-18T04:22:02.272Z,1.20
2023-01-18T04:24:32.258Z,1.20
2023-01-18T04:27:03.413Z,1.20
2023-01-18T04:29:32.181Z,1.20
2023-01-18T04:32:04.592Z,0.20
2023-01-18T04:34:32.615Z,0.20
2023-01-18T04:37:02.313Z,0.20
2023-01-18T04:39:32.590Z,0.20
2023-01-18T04:42:02.400Z,0.10
2023-01-18T04:44:32.161Z,0.10
2023-01-18T04:47:02.357Z,0.10
2023-01-18T04:49:32.165Z,0.10
2023-01-18T04:52:02.966Z,0.10
2023-01-18T04:57:02.290Z,0.10
2023-01-18T04:59:32.185Z,0.10
2023-01-18T05:04:32.228Z,0.10
2023-01-18T05:07:02.493Z,0.10
2023-01-18T05:09:33.446Z,0.10
2023-01-18T05:17:04.409Z,0.10
2023-01-18T05:19:33.052Z,0.10
2023-01-18T05:24:32.161Z,0.10
2023-01-18T05:27:02.354Z,0.10
2023-01-18T05:32:02.654Z,0.10
2023-01-18T05:34:32.399Z,0.10
2023-01-18T05:37:03.825Z,0.10
2023-01-18T05:39:32.185Z,0.10
2023-01-18T05:42:03.860Z,0.10
2023-01-18T05:44:32.650Z,0.10
2023-01-18T05:47:02.171Z,0.10
2023-01-18T05:49:32.169Z,0.10
2023-01-18T05:52:02.509Z,0.20
2023-01-18T05:54:32.673Z,0.20
2023-01-18T05:59:32.170Z,0.20
2023-01-18T06:02:02.849Z,0.10
2023-01-18T06:04:32.229Z,0.10
2023-01-18T06:07:02.718Z,0.10
2023-01-18T06:09:32.202Z,0.10
2023-01-18T06:12:02.505Z,0.20
2023-01-18T06:14:32.145Z,0.20
2023-01-18T06:17:02.228Z,0.20
2023-01-18T06:19:32.282Z,0.20
2023-01-18T06:22:02.504Z,0.10
2023-01-18T06:24:32.341Z,0.10
2023-01-18T06:27:03.481Z,0.10
2023-01-18T06:29:32.155Z,0.10
2023-01-18T06:32:02.939Z,0.10
2023-01-18T06:34:32.405Z,0.10
2023-01-18T06:37:03.016Z,0.10
2023-01-18T06:39:32.158Z,0.10
2023-01-18T06:42:02.505Z,0.10
2023-01-18T06:44:32.280Z,0.10
2023-01-18T06:47:02.167Z,0.10
2023-01-18T06:49:32.181Z,0.10
2023-01-18T06:52:02.160Z,0.10
2023-01-18T06:57:02.584Z,0.10
2023-01-18T06:59:32.289Z,0.10
2023-01-18T07:04:35.622Z,0.10
2023-01-18T07:07:02.748Z,0.10
2023-01-18T07:09:32.234Z,0.10
2023-01-18T07:12:02.502Z,0.10
2023-01-18T07:14:32.344Z,0.10
2023-01-18T07:17:02.371Z,0.10
2023-01-18T07:19:32.520Z,0.10
2023-01-18T07:22:02.223Z,0.30
2023-01-18T07:24:32.143Z,0.30
2023-01-18T07:27:02.643Z,0.30
2023-01-18T07:29:32.301Z,0.30
2023-01-18T07:32:02.826Z,0.20
2023-01-18T07:37:02.527Z,0.20
2023-01-18T07:39:32.169Z,0.20
2023-01-18T07:42:02.440Z,0.30
2023-01-18T07:47:02.458Z,0.30
2023-01-18T07:49:33.483Z,0.30
2023-01-18T07:52:02.242Z,0.10
2023-01-18T07:57:02.868Z,0.10
2023-01-18T07:59:32.551Z,0.10
2023-01-18T08:02:03.460Z,0.20
2023-01-18T08:04:32.286Z,0.20
2023-01-18T08:07:03.829Z,0.20
2023-01-18T08:09:33.064Z,0.20
2023-01-18T08:12:02.898Z,0.10
2023-01-18T08:14:32.362Z,0.10
2023-01-18T08:17:02.661Z,0.10
2023-01-18T08:22:02.831Z,0.20
2023-01-18T08:24:32.164Z,0.20
2023-01-18T08:27:02.384Z,0.20
2023-01-18T08:29:32.346Z,0.20
2023-01-18T08:32:02.237Z,0.10
2023-01-18T08:34:32.723Z,0.10
2023-01-18T08:37:02.317Z,0.10
2023-01-18T08:39:32.246Z,0.10
2023-01-18T08:42:02.615Z,0.10
2023-01-18T08:47:02.568Z,0.10
2023-01-18T08:49:32.510Z,0.10
2023-01-18T08:52:02.521Z,0.20
2023-01-18T08:57:03.431Z,0.20
2023-01-18T08:59:32.462Z,0.20
2023-01-18T09:02:02.328Z,0.20
2023-01-18T09:04:34.058Z,0.20
2023-01-18T09:07:02.226Z,0.20
2023-01-18T09:09:32.330Z,0.20
2023-01-18T09:12:02.860Z,0.20
2023-01-18T09:14:32.296Z,0.20
2023-01-18T09:17:02.400Z,0.20
2023-01-18T09:19:32.524Z,0.20
2023-01-18T09:22:03.021Z,0.30
2023-01-18T09:24:32.307Z,0.30
2023-01-18T09:27:03.831Z,0.30
2023-01-18T09:29:32.339Z,0.30
2023-01-18T09:32:02.265Z,0.20
2023-01-18T09:37:02.564Z,0.20
2023-01-18T09:39:43.065Z,0.20
2023-01-18T09:42:03.965Z,0.10
2023-01-18T09:44:35.046Z,0.10
2023-01-18T09:47:09.825Z,0.10
2023-01-18T09:52:14.732Z,0.10
2023-01-18T09:54:40.226Z,0.10
2023-01-18T09:57:12.054Z,0.10
2023-01-18T09:59:38.881Z,0.10
2023-01-18T10:02:09.955Z,1.70
2023-01-18T10:04:37.588Z,1.70
2023-01-18T10:07:06.993Z,1.70
2023-01-18T10:09:38.280Z,1.70
2023-01-18T10:12:12.052Z,0.50
2023-01-18T10:14:42.731Z,0.50
2023-01-18T10:17:10.766Z,0.50
2023-01-18T10:19:32.597Z,0.50
2023-01-18T10:22:07.902Z,0.10
2023-01-18T10:24:43.420Z,0.10
2023-01-18T10:27:16.863Z,0.10
2023-01-18T10:29:49.587Z,0.10
2023-01-18T10:32:07.305Z,0.10
2023-01-18T10:34:34.841Z,0.10
2023-01-18T10:37:13.461Z,0.10
2023-01-18T10:39:36.467Z,0.10
2023-01-18T10:42:06.328Z,0.40
2023-01-18T10:44:32.508Z,0.40
2023-01-18T10:47:02.581Z,0.40
2023-01-18T10:49:35.949Z,0.40
2023-01-18T10:52:22.033Z,0.30
2023-01-18T10:54:32.211Z,0.30
2023-01-18T10:57:04.396Z,0.30
2023-01-18T10:59:36.506Z,0.30
2023-01-18T11:02:04.128Z,0.40
2023-01-18T11:04:33.183Z,0.40
2023-01-18T11:07:04.866Z,0.40
2023-01-18T11:09:42.083Z,0.40
2023-01-18T11:12:27.434Z,0.10
2023-01-18T11:14:34.220Z,0.10
2023-01-18T11:17:10.285Z,0.10
2023-01-18T11:19:32.276Z,0.10
2023-01-18T11:22:03.144Z,0.10
2023-01-18T11:24:33.195Z,0.10
2023-01-18T11:27:11.429Z,0.10
2023-01-18T11:29:38.234Z,0.10
2023-01-18T11:32:05.679Z,0.10
2023-01-18T11:34:34.358Z,0.10
2023-01-18T11:37:03.338Z,0.10
2023-01-18T11:39:34.425Z,0.10
2023-01-18T11:42:17.925Z,0.10
2023-01-18T11:44:36.085Z,0.10
2023-01-18T11:47:08.245Z,0.10
2023-01-18T11:49:38.394Z,0.10
2023-01-18T11:52:08.712Z,0.10
2023-01-18T11:54:37.835Z,0.10
2023-01-18T11:57:03.807Z,0.10
2023-01-18T11:59:34.767Z,0.10
2023-01-18T12:02:22.427Z,0.10
2023-01-18T12:04:45.307Z,0.10
2023-01-18T12:07:15.454Z,0.10
2023-01-18T12:09:39.937Z,0.10
2023-01-18T12:12:18.950Z,0.10
2023-01-18T12:14:48.516Z,0.10
2023-01-18T12:17:15.498Z,0.10
2023-01-18T12:19:46.441Z,0.10
2023-01-18T12:22:22.319Z,0.20
2023-01-18T12:24:45.792Z,0.20
2023-01-18T12:27:07.623Z,0.20
2023-01-18T12:29:52.101Z,0.20
2023-01-18T12:32:19.352Z,0.40
2023-01-18T12:34:40.816Z,0.40
2023-01-18T12:37:16.109Z,0.40
2023-01-18T12:39:49.776Z,0.40
2023-01-18T12:42:04.171Z,0.20
2023-01-18T12:44:46.556Z,0.20
2023-01-18T12:49:38.511Z,0.20
2023-01-18T12:52:18.028Z,0.30
2023-01-18T12:54:38.783Z,0.30
2023-01-18T12:57:03.333Z,0.30
2023-01-18T12:59:40.009Z,0.30
2023-01-18T13:02:10.809Z,0.20
2023-01-18T13:04:42.663Z,0.20
2023-01-18T13:07:10.750Z,0.20
2023-01-18T13:09:37.718Z,0.20
2023-01-18T13:12:04.971Z,5.90
2023-01-18T13:14:39.777Z,5.90
2023-01-18T13:17:08.410Z,5.90
2023-01-18T13:19:40.037Z,5.90
2023-01-18T13:22:10.034Z,0.80
2023-01-18T13:24:47.417Z,0.80
2023-01-18T13:27:07.607Z,0.80
2023-01-18T13:29:32.521Z,0.80
2023-01-18T13:32:21.393Z,1.30
2023-01-18T13:34:42.221Z,1.30
2023-01-18T13:37:14.943Z,1.30
2023-01-18T13:39:43.016Z,1.30
2023-01-18T13:42:22.207Z,0.10
2023-01-18T13:44:39.124Z,0.10
2023-01-18T13:47:12.225Z,0.10
2023-01-18T13:49:37.943Z,0.10
2023-01-18T13:52:12.722Z,0.20
2023-01-18T13:54:52.084Z,0.20
2023-01-18T13:57:16.704Z,0.20
2023-01-18T13:59:35.079Z,0.20
2023-01-18T14:02:12.738Z,0.10
2023-01-18T14:04:34.689Z,0.10
2023-01-18T14:07:06.227Z,0.10
2023-01-18T14:09:38.044Z,0.10
2023-01-18T14:12:03.249Z,0.10
2023-01-18T14:14:34.642Z,0.10
2023-01-18T14:17:13.531Z,0.10
2023-01-18T14:22:11.899Z,0.10
2023-01-18T14:24:45.270Z,0.10
2023-01-18T14:27:05.329Z,0.10
2023-01-18T14:32:06.016Z,0.10
2023-01-18T14:34:37.011Z,0.10
2023-01-18T14:37:03.720Z,0.10
2023-01-18T14:39:32.475Z,0.10
2023-01-18T14:42:04.723Z,0.30
2023-01-18T14:44:52.548Z,0.30
2023-01-18T14:47:18.587Z,0.30
2023-01-18T14:49:36.473Z,0.30
2023-01-18T14:52:03.593Z,0.50
2023-01-18T14:54:33.002Z,0.50
2023-01-18T14:57:07.993Z,0.50
2023-01-18T14:59:32.945Z,0.50
2023-01-18T15:02:14.921Z,0.40
2023-01-18T15:04:35.061Z,0.40
2023-01-18T15:07:06.715Z,0.40
2023-01-18T15:09:36.410Z,0.40
2023-01-18T15:12:06.992Z,0.40
2023-01-18T15:14:35.656Z,0.40
2023-01-18T15:17:07.557Z,0.40
2023-01-18T15:19:37.677Z,0.40
2023-01-18T15:22:03.311Z,0.20
2023-01-18T15:24:37.576Z,0.20
2023-01-18T15:27:02.684Z,0.20
2023-01-18T15:29:34.236Z,0.20
2023-01-18T15:34:35.791Z,0.30
2023-01-18T15:37:05.179Z,0.30
2023-01-18T15:42:06.871Z,0.10
2023-01-18T15:44:39.856Z,0.10
2023-01-18T15:47:15.059Z,0.10
2023-01-18T15:49:32.476Z,0.10
2023-01-18T15:52:03.772Z,0.10
2023-01-18T15:54:32.542Z,0.10
2023-01-18T15:57:10.638Z,0.10
2023-01-18T15:59:32.313Z,0.10
2023-01-18T16:02:12.716Z,0.20
2023-01-18T16:07:22.160Z,0.20
2023-01-18T16:09:33.528Z,0.20
2023-01-18T16:12:06.636Z,0.10
2023-01-18T16:17:05.260Z,0.10
2023-01-18T16:19:35.696Z,0.10
2023-01-18T16:22:04.186Z,2.90
2023-01-18T16:27:10.399Z,2.90
2023-01-18T16:29:38.766Z,2.90
2023-01-18T16:34:32.519Z,0.10
2023-01-18T16:37:02.338Z,0.10
2023-01-18T16:39:37.580Z,0.10
2023-01-18T16:42:02.610Z,0.10
2023-01-18T16:44:32.363Z,0.10
2023-01-18T16:47:02.717Z,0.10
2023-01-18T16:49:32.339Z,0.10
2023-01-18T16:52:02.818Z,16.60
2023-01-18T16:54:32.496Z,16.60
2023-01-18T16:57:04.024Z,16.60
2023-01-18T16:59:32.320Z,16.60
2023-01-18T17:02:02.695Z,0.70
2023-01-18T17:04:32.873Z,0.70
2023-01-18T17:07:03.099Z,0.70
2023-01-18T17:09:40.289Z,0.70
2023-01-18T17:12:02.726Z,0.10
2023-01-18T17:14:33.008Z,0.10
2023-01-18T17:17:02.338Z,0.10
2023-01-18T17:19:32.543Z,0.10
2023-01-18T17:24:32.703Z,0.20
2023-01-18T17:27:02.361Z,0.20
2023-01-18T17:29:32.316Z,0.20
2023-01-18T17:34:32.994Z,0.10
2023-01-18T17:37:02.685Z,0.10
2023-01-18T17:39:43.992Z,0.10
2023-01-18T17:42:02.538Z,0.40
2023-01-18T17:44:37.060Z,0.40
2023-01-18T17:47:02.337Z,0.40
2023-01-18T17:49:32.633Z,0.40
2023-01-18T17:54:33.024Z,0.20
2023-01-18T17:57:02.595Z,0.20
2023-01-18T17:59:32.634Z,0.20
2023-01-18T18:02:03.809Z,0.10
2023-01-18T18:04:32.582Z,0.10
2023-01-18T18:07:02.570Z,0.10
2023-01-18T18:09:37.438Z,0.10
2023-01-18T18:12:02.445Z,0.10
2023-01-18T18:14:33.377Z,0.10
2023-01-18T18:17:04.281Z,0.10
2023-01-18T18:19:32.826Z,0.10
2023-01-18T18:22:02.497Z,0.10
2023-01-18T18:24:32.765Z,0.10
2023-01-18T18:27:03.052Z,0.10
2023-01-18T18:29:32.605Z,0.10
2023-01-18T18:32:04.645Z,0.10
2023-01-18T18:34:33.246Z,0.10
2023-01-18T18:37:04.291Z,0.10
2023-01-18T18:39:32.864Z,0.10
2023-01-18T18:42:02.773Z,0.20
2023-01-18T18:44:32.712Z,0.20
2023-01-18T18:47:04.865Z,0.20
2023-01-18T18:49:32.339Z,0.20
2023-01-18T18:52:02.458Z,0.50
2023-01-18T18:54:32.920Z,0.50
2023-01-18T18:57:02.480Z,0.50
2023-01-18T18:59:32.329Z,0.10
2023-01-18T19:02:02.715Z,0.10
2023-01-18T19:04:33.393Z,0.10
2023-01-18T19:07:02.400Z,0.10
2023-01-18T19:09:33.245Z,0.10
2023-01-18T19:12:02.562Z,0.10
2023-01-18T19:14:32.494Z,0.10
2023-01-18T19:17:02.562Z,0.10
2023-01-18T19:19:32.367Z,0.10
2023-01-18T19:22:02.573Z,0.10
2023-01-18T19:24:35.438Z,0.10
2023-01-18T19:27:04.093Z,0.10
2023-01-18T19:29:32.382Z,0.10
2023-01-18T19:32:02.679Z,0.10
2023-01-18T19:34:32.591Z,0.10
2023-01-18T19:37:02.364Z,0.10
2023-01-18T19:39:33.773Z,0.10
2023-01-18T19:42:02.606Z,0.10
2023-01-18T19:44:32.620Z,0.10
2023-01-18T19:47:02.507Z,0.10
2023-01-18T19:52:02.700Z,0.10
2023-01-18T19:54:32.539Z,0.10
2023-01-18T19:57:03.482Z,0.10
2023-01-18T19:59:32.490Z,0.10
2023-01-18T20:02:02.819Z,0.10
2023-01-18T20:04:33.219Z,0.10
2023-01-18T20:07:02.578Z,0.10
2023-01-18T20:09:42.694Z,0.50
2023-01-18T20:12:04.116Z,0.50
2023-01-18T20:14:40.941Z,0.50
2023-01-18T20:17:02.358Z,0.50
2023-01-18T20:19:32.671Z,0.10
2023-01-18T20:22:02.779Z,0.10
2023-01-18T20:24:33.049Z,0.10
2023-01-18T20:27:14.826Z,0.10
2023-01-18T20:29:32.444Z,0.10
2023-01-18T20:32:14.478Z,0.10
2023-01-18T20:34:32.975Z,0.10
2023-01-18T20:37:02.503Z,0.10
2023-01-18T20:39:32.387Z,0.20
2023-01-18T20:42:02.744Z,0.20
2023-01-18T20:44:32.793Z,0.20
2023-01-18T20:47:02.940Z,0.20
2023-01-18T20:49:38.293Z,0.10
2023-01-18T20:52:02.652Z,0.10
2023-01-18T20:54:34.700Z,0.10
2023-01-18T20:57:03.019Z,0.10
2023-01-18T20:59:32.550Z,0.10
2023-01-18T21:02:03.290Z,0.10
2023-01-18T21:04:32.720Z,0.10
2023-01-18T21:07:02.393Z,0.10
2023-01-18T21:09:32.695Z,0.20
2023-01-18T21:12:02.775Z,0.20
2023-01-18T21:14:32.637Z,0.20
2023-01-18T21:17:02.579Z,0.20
2023-01-18T21:19:32.456Z,0.10
2023-01-18T21:22:02.702Z,0.10
2023-01-18T21:29:33.165Z,0.10
2023-01-18T21:32:03.000Z,0.10
2023-01-18T21:34:32.432Z,0.10
2023-01-18T21:37:03.476Z,0.10
2023-01-18T21:39:32.987Z,0.10
2023-01-18T21:42:12.633Z,0.10
2023-01-18T21:44:42.296Z,0.10
2023-01-18T21:47:02.581Z,0.10
2023-01-18T21:50:11.428Z,0.20
2023-01-18T21:52:12.382Z,0.20
2023-01-18T21:54:32.397Z,0.20
2023-01-18T21:57:03.591Z,0.20
2023-01-18T22:02:03.297Z,0.10
2023-01-18T22:04:42.326Z,0.10
2023-01-18T22:07:03.335Z,0.10
2023-01-18T22:09:32.691Z,0.10
2023-01-18T22:12:03.442Z,0.10
2023-01-18T22:14:32.393Z,0.10
2023-01-18T22:17:03.117Z,0.10
2023-01-18T22:19:32.401Z,0.10
2023-01-18T22:24:32.829Z,0.10
2023-01-18T22:27:03.560Z,0.10
2023-01-18T22:29:33.191Z,0.10
2023-01-18T22:32:02.536Z,0.10
2023-01-18T22:34:32.599Z,0.10
2023-01-18T22:37:02.570Z,0.10
2023-01-18T22:39:32.387Z,0.10
2023-01-18T22:42:02.941Z,0.10
2023-01-18T22:44:32.819Z,0.10
2023-01-18T22:47:02.588Z,0.10
2023-01-18T22:49:32.701Z,0.10
2023-01-18T22:52:03.290Z,0.10
2023-01-18T22:54:32.750Z,0.10
2023-01-18T22:57:02.613Z,0.10
2023-01-18T22:59:32.415Z,0.10
2023-01-18T23:02:02.435Z,0.10
2023-01-18T23:04:33.560Z,0.10
2023-01-18T23:07:02.675Z,0.10
2023-01-18T23:09:32.419Z,0.10
2023-01-18T23:12:02.745Z,0.10
2023-01-18T23:14:42.671Z,0.10
2023-01-18T23:17:12.664Z,0.10
2023-01-18T23:19:32.595Z,0.10
2023-01-18T23:22:05.882Z,0.10
2023-01-18T23:24:33.696Z,0.10
2023-01-18T23:29:32.466Z,0.10
2023-01-18T23:32:02.592Z,0.10
2023-01-18T23:34:32.643Z,0.10
2023-01-18T23:37:02.595Z,0.10
2023-01-18T23:39:42.304Z,0.10
2023-01-18T23:42:12.496Z,0.10
2023-01-18T23:44:42.364Z,0.10
2023-01-18T23:49:42.662Z,0.10
2023-01-18T23:52:12.282Z,0.10
2023-01-18T23:54:32.480Z,0.10
2023-01-18T23:57:02.583Z,0.10
2023-01-18T23:59:34.011Z,0.20
